sensor_id;sensor_type;location;lat;lon;timestamp;pressure;altitude;pressure_sealevel;temperature;humidity
55271;BME280;41132;47.162;9.470;2023-02-23T00:01:32;96209.59;;;8.02;100.00
55271;BME280;41132;47.162;9.470;2023-02-23T00:03:57;96209.84;;;8.09;100.00
55271;BME280;41132;47.162;9.470;2023-02-23T00:06:28;96214.53;;;8.05;100.00
55271;BME280;41132;47.162;9.470;2023-02-23T00:08:54;96209.31;;;8.05;100.00
55271;BME280;41132;47.162;9.470;2023-02-23T00:11:20;96213.81;;;8.13;100.00
55271;BME280;41132;47.162;9.470;2023-02-23T00:13:47;96213.28;;;8.09;100.00
55271;BME280;41132;47.162;9.470;2023-02-23T00:16:22;96216.19;;;8.06;100.00
55271;BME280;41132;47.162;9.470;2023-02-23T00:18:50;96208.19;;;8.08;100.00
55271;BME280;41132;47.162;9.470;2023-02-23T00:21:18;96215.78;;;8.01;100.00
55271;BME280;41132;47.162;9.470;2023-02-23T00:23:53;96215.22;;;8.07;100.00
55271;BME280;41132;47.162;9.470;2023-02-23T00:26:22;96217.50;;;8.10;100.00
55271;BME280;41132;47.162;9.470;2023-02-23T00:28:49;96217.97;;;8.06;100.00
55271;BME280;41132;47.162;9.470;2023-02-23T00:31:18;96209.06;;;7.99;100.00
55271;BME280;41132;47.162;9.470;2023-02-23T00:33:47;96202.78;;;7.91;100.00
55271;BME280;41132;47.162;9.470;2023-02-23T00:36:15;96202.69;;;7.83;100.00
55271;BME280;41132;47.162;9.470;2023-02-23T00:38:41;96212.63;;;7.80;100.00
55271;BME280;41132;47.162;9.470;2023-02-23T00:41:12;96222.94;;;7.81;100.00
55271;BME280;41132;47.162;9.470;2023-02-23T00:43:39;96219.09;;;7.76;100.00
55271;BME280;41132;47.162;9.470;2023-02-23T00:46:24;96221.69;;;7.76;100.00
55271;BME280;41132;47.162;9.470;2023-02-23T00:48:55;96227.72;;;7.86;100.00
55271;BME280;41132;47.162;9.470;2023-02-23T00:51:24;96216.47;;;7.76;100.00
55271;BME280;41132;47.162;9.470;2023-02-23T00:53:55;96208.94;;;7.72;100.00
55271;BME280;41132;47.162;9.470;2023-02-23T00:56:21;96220.06;;;7.74;100.00
55271;BME280;41132;47.162;9.470;2023-02-23T00:58:46;96207.66;;;7.77;100.00
55271;BME280;41132;47.162;9.470;2023-02-23T01:01:13;96209.63;;;7.74;100.00
55271;BME280;41132;47.162;9.470;2023-02-23T01:03:40;96216.84;;;7.81;100.00
55271;BME280;41132;47.162;9.470;2023-02-23T01:06:07;96221.94;;;7.82;100.00
55271;BME280;41132;47.162;9.470;2023-02-23T01:08:36;96219.38;;;7.72;100.00
55271;BME280;41132;47.162;9.470;2023-02-23T01:11:12;96215.56;;;7.67;100.00
55271;BME280;41132;47.162;9.470;2023-02-23T01:13:39;96214.59;;;7.68;100.00
55271;BME280;41132;47.162;9.470;2023-02-23T01:16:11;96216.97;;;7.61;100.00
55271;BME280;41132;47.162;9.470;2023-02-23T01:18:38;96227.78;;;7.66;100.00
55271;BME280;41132;47.162;9.470;2023-02-23T01:21:05;96220.94;;;7.65;100.00
55271;BME280;41132;47.162;9.470;2023-02-23T01:23:37;96224.44;;;7.74;100.00
55271;BME280;41132;47.162;9.470;2023-02-23T01:26:03;96221.03;;;7.73;100.00
55271;BME280;41132;47.162;9.470;2023-02-23T01:28:28;96211.56;;;7.72;100.00
55271;BME280;41132;47.162;9.470;2023-02-23T01:30:53;96224.19;;;7.77;100.00
55271;BME280;41132;47.162;9.470;2023-02-23T01:33:19;96215.50;;;7.77;100.00
55271;BME280;41132;47.162;9.470;2023-02-23T01:35:44;96206.03;;;7.76;100.00
55271;BME280;41132;47.162;9.470;2023-02-23T01:38:10;96209.88;;;7.71;100.00
55271;BME280;41132;47.162;9.470;2023-02-23T01:40:35;96221.56;;;7.77;100.00
55271;BME280;41132;47.162;9.470;2023-02-23T01:43:13;96216.03;;;7.80;100.00
55271;BME280;41132;47.162;9.470;2023-02-23T01:45:42;96207.09;;;7.83;100.00
55271;BME280;41132;47.162;9.470;2023-02-23T01:48:20;96211.88;;;7.87;100.00
55271;BME280;41132;47.162;9.470;2023-02-23T01:50:53;96200.75;;;7.85;100.00
55271;BME280;41132;47.162;9.470;2023-02-23T01:53:20;96210.50;;;7.93;100.00
55271;BME280;41132;47.162;9.470;2023-02-23T01:55:49;96203.34;;;7.85;100.00
55271;BME280;41132;47.162;9.470;2023-02-23T01:58:17;96205.69;;;7.88;100.00
55271;BME280;41132;47.162;9.470;2023-02-23T02:00:48;96204.91;;;7.78;100.00
55271;BME280;41132;47.162;9.470;2023-02-23T02:03:44;96200.06;;;7.83;100.00
55271;BME280;41132;47.162;9.470;2023-02-23T02:06:12;96201.19;;;7.81;100.00
55271;BME280;41132;47.162;9.470;2023-02-23T02:08:41;96202.41;;;7.86;100.00
55271;BME280;41132;47.162;9.470;2023-02-23T02:11:11;96208.06;;;7.82;100.00
55271;BME280;41132;47.162;9.470;2023-02-23T02:13:52;96213.13;;;7.83;100.00
55271;BME280;41132;47.162;9.470;2023-02-23T02:33:38;96195.00;;;7.82;100.00
55271;BME280;41132;47.162;9.470;2023-02-23T02:47:18;96197.63;;;7.82;100.00
55271;BME280;41132;47.162;9.470;2023-02-23T02:52:55;96197.75;;;7.80;100.00
55271;BME280;41132;47.162;9.470;2023-02-23T02:55:24;96198.75;;;7.69;100.00
55271;BME280;41132;47.162;9.470;2023-02-23T02:57:54;96203.31;;;7.67;100.00
55271;BME280;41132;47.162;9.470;2023-02-23T03:00:27;96203.59;;;7.64;100.00
55271;BME280;41132;47.162;9.470;2023-02-23T03:03:28;96199.88;;;7.67;100.00
55271;BME280;41132;47.162;9.470;2023-02-23T03:06:17;96201.38;;;7.69;100.00
55271;BME280;41132;47.162;9.470;2023-02-23T03:09:36;96206.75;;;7.68;100.00
55271;BME280;41132;47.162;9.470;2023-02-23T03:18:21;96205.22;;;7.75;100.00
55271;BME280;41132;47.162;9.470;2023-02-23T03:21:15;96204.41;;;7.65;100.00
55271;BME280;41132;47.162;9.470;2023-02-23T03:24:10;96192.47;;;7.62;100.00
55271;BME280;41132;47.162;9.470;2023-02-23T03:27:06;96208.97;;;7.63;100.00
55271;BME280;41132;47.162;9.470;2023-02-23T03:30:03;96212.84;;;7.59;100.00
55271;BME280;41132;47.162;9.470;2023-02-23T03:32:52;96204.19;;;7.58;100.00
55271;BME280;41132;47.162;9.470;2023-02-23T03:35:49;96202.53;;;7.57;100.00
55271;BME280;41132;47.162;9.470;2023-02-23T03:41:41;96204.34;;;7.57;100.00
55271;BME280;41132;47.162;9.470;2023-02-23T03:44:34;96213.00;;;7.57;100.00
55271;BME280;41132;47.162;9.470;2023-02-23T03:47:23;96213.03;;;7.47;100.00
55271;BME280;41132;47.162;9.470;2023-02-23T03:50:14;96204.59;;;7.53;100.00
55271;BME280;41132;47.162;9.470;2023-02-23T03:53:01;96209.31;;;7.50;100.00
55271;BME280;41132;47.162;9.470;2023-02-23T03:55:54;96219.59;;;7.51;100.00
55271;BME280;41132;47.162;9.470;2023-02-23T03:58:45;96211.75;;;7.51;100.00
55271;BME280;41132;47.162;9.470;2023-02-23T04:01:31;96210.81;;;7.52;100.00
55271;BME280;41132;47.162;9.470;2023-02-23T04:04:16;96220.56;;;7.50;100.00
55271;BME280;41132;47.162;9.470;2023-02-23T04:07:02;96215.47;;;7.59;100.00
55271;BME280;41132;47.162;9.470;2023-02-23T04:09:47;96219.28;;;7.64;100.00
55271;BME280;41132;47.162;9.470;2023-02-23T04:12:55;96219.84;;;7.58;100.00
55271;BME280;41132;47.162;9.470;2023-02-23T04:15:56;96216.84;;;7.53;100.00
55271;BME280;41132;47.162;9.470;2023-02-23T04:18:26;96215.72;;;7.56;100.00
55271;BME280;41132;47.162;9.470;2023-02-23T04:20:53;96217.97;;;7.50;100.00
55271;BME280;41132;47.162;9.470;2023-02-23T04:23:18;96221.38;;;7.51;100.00
55271;BME280;41132;47.162;9.470;2023-02-23T04:25:47;96226.09;;;7.47;100.00
55271;BME280;41132;47.162;9.470;2023-02-23T04:28:12;96223.06;;;7.52;100.00
55271;BME280;41132;47.162;9.470;2023-02-23T04:30:38;96224.16;;;7.49;100.00
55271;BME280;41132;47.162;9.470;2023-02-23T04:33:03;96219.50;;;7.43;100.00
55271;BME280;41132;47.162;9.470;2023-02-23T04:35:29;96230.88;;;7.52;100.00
55271;BME280;41132;47.162;9.470;2023-02-23T04:37:56;96225.53;;;7.44;100.00
55271;BME280;41132;47.162;9.470;2023-02-23T04:40:21;96233.66;;;7.41;100.00
55271;BME280;41132;47.162;9.470;2023-02-23T04:42:47;96232.69;;;7.42;100.00
55271;BME280;41132;47.162;9.470;2023-02-23T04:45:12;96230.91;;;7.42;100.00
55271;BME280;41132;47.162;9.470;2023-02-23T04:47:37;96232.94;;;7.48;100.00
55271;BME280;41132;47.162;9.470;2023-02-23T04:50:03;96239.53;;;7.52;100.00
55271;BME280;41132;47.162;9.470;2023-02-23T04:52:29;96238.03;;;7.50;100.00
55271;BME280;41132;47.162;9.470;2023-02-23T04:54:55;96228.53;;;7.49;100.00
55271;BME280;41132;47.162;9.470;2023-02-23T04:57:21;96239.53;;;7.52;100.00
55271;BME280;41132;47.162;9.470;2023-02-23T04:59:46;96228.53;;;7.49;100.00
55271;BME280;41132;47.162;9.470;2023-02-23T05:02:11;96230.59;;;7.55;100.00
55271;BME280;41132;47.162;9.470;2023-02-23T05:04:37;96217.28;;;7.48;100.00
55271;BME280;41132;47.162;9.470;2023-02-23T05:07:03;96222.06;;;7.53;100.00
55271;BME280;41132;47.162;9.470;2023-02-23T05:09:29;96230.28;;;7.58;100.00
55271;BME280;41132;47.162;9.470;2023-02-23T05:11:55;96226.34;;;7.44;100.00
55271;BME280;41132;47.162;9.470;2023-02-23T05:14:21;96231.88;;;7.41;100.00
55271;BME280;41132;47.162;9.470;2023-02-23T05:16:46;96229.59;;;7.19;100.00
55271;BME280;41132;47.162;9.470;2023-02-23T05:19:12;96226.44;;;7.25;100.00
55271;BME280;41132;47.162;9.470;2023-02-23T05:21:37;96239.59;;;7.33;100.00
55271;BME280;41132;47.162;9.470;2023-02-23T05:24:04;96227.13;;;7.27;100.00
55271;BME280;41132;47.162;9.470;2023-02-23T05:26:29;96225.19;;;7.29;100.00
55271;BME280;41132;47.162;9.470;2023-02-23T05:28:54;96224.59;;;7.35;100.00
55271;BME280;41132;47.162;9.470;2023-02-23T05:31:21;96226.09;;;7.38;100.00
55271;BME280;41132;47.162;9.470;2023-02-23T05:33:46;96231.31;;;7.47;100.00
55271;BME280;41132;47.162;9.470;2023-02-23T05:36:15;96229.66;;;7.46;100.00
55271;BME280;41132;47.162;9.470;2023-02-23T05:38:41;96217.03;;;7.42;100.00
55271;BME280;41132;47.162;9.470;2023-02-23T05:41:10;96224.44;;;7.46;100.00
55271;BME280;41132;47.162;9.470;2023-02-23T05:43:36;96230.91;;;7.42;100.00
55271;BME280;41132;47.162;9.470;2023-02-23T05:46:08;96235.56;;;7.48;100.00
55271;BME280;41132;47.162;9.470;2023-02-23T05:48:34;96234.44;;;7.51;100.00
55271;BME280;41132;47.162;9.470;2023-02-23T05:51:03;96225.84;;;7.41;100.00
55271;BME280;41132;47.162;9.470;2023-02-23T05:53:29;96232.25;;;7.46;100.00
55271;BME280;41132;47.162;9.470;2023-02-23T05:55:55;96239.41;;;7.44;100.00
55271;BME280;41132;47.162;9.470;2023-02-23T05:58:20;96228.53;;;7.49;100.00
55271;BME280;41132;47.162;9.470;2023-02-23T06:00:45;96221.13;;;7.44;100.00
55271;BME280;41132;47.162;9.470;2023-02-23T06:03:11;96236.78;;;7.54;100.00
55271;BME280;41132;47.162;9.470;2023-02-23T06:05:36;96235.69;;;7.47;100.00
55271;BME280;41132;47.162;9.470;2023-02-23T06:08:01;96231.44;;;7.46;100.00
55271;BME280;41132;47.162;9.470;2023-02-23T06:10:27;96220.06;;;7.37;100.00
55271;BME280;41132;47.162;9.470;2023-02-23T06:12:52;96237.66;;;7.45;100.00
55271;BME280;41132;47.162;9.470;2023-02-23T06:15:18;96236.00;;;7.44;100.00
55271;BME280;41132;47.162;9.470;2023-02-23T06:17:43;96232.19;;;7.28;100.00
55271;BME280;41132;47.162;9.470;2023-02-23T06:20:09;96248.22;;;7.43;100.00
55271;BME280;41132;47.162;9.470;2023-02-23T06:22:34;96239.56;;;7.43;100.00
55271;BME280;41132;47.162;9.470;2023-02-23T06:25:00;96238.91;;;7.41;100.00
55271;BME280;41132;47.162;9.470;2023-02-23T06:27:29;96236.41;;;7.39;100.00
55271;BME280;41132;47.162;9.470;2023-02-23T06:29:55;96246.84;;;7.39;100.00
55271;BME280;41132;47.162;9.470;2023-02-23T06:32:20;96250.44;;;7.38;100.00
55271;BME280;41132;47.162;9.470;2023-02-23T06:34:46;96238.81;;;7.23;100.00
55271;BME280;41132;47.162;9.470;2023-02-23T06:37:11;96258.13;;;7.40;100.00
55271;BME280;41132;47.162;9.470;2023-02-23T06:39:36;96250.63;;;7.27;100.00
55271;BME280;41132;47.162;9.470;2023-02-23T06:42:02;96251.00;;;7.32;100.00
55271;BME280;41132;47.162;9.470;2023-02-23T06:44:27;96267.63;;;7.31;100.00
55271;BME280;41132;47.162;9.470;2023-02-23T06:46:53;96265.56;;;7.35;100.00
55271;BME280;41132;47.162;9.470;2023-02-23T06:49:18;96261.72;;;7.39;100.00
55271;BME280;41132;47.162;9.470;2023-02-23T06:51:43;96262.22;;;7.42;100.00
55271;BME280;41132;47.162;9.470;2023-02-23T06:54:09;96256.88;;;7.44;100.00
55271;BME280;41132;47.162;9.470;2023-02-23T06:56:34;96260.03;;;7.38;100.00
55271;BME280;41132;47.162;9.470;2023-02-23T06:58:59;96260.34;;;7.35;100.00
55271;BME280;41132;47.162;9.470;2023-02-23T07:01:25;96265.56;;;7.35;100.00
55271;BME280;41132;47.162;9.470;2023-02-23T07:03:50;96273.53;;;7.43;100.00
55271;BME280;41132;47.162;9.470;2023-02-23T07:06:15;96270.50;;;7.38;100.00
55271;BME280;41132;47.162;9.470;2023-02-23T07:08:41;96278.63;;;7.35;100.00
55271;BME280;41132;47.162;9.470;2023-02-23T07:11:08;96280.13;;;7.37;100.00
55271;BME280;41132;47.162;9.470;2023-02-23T07:13:34;96276.41;;;7.40;100.00
55271;BME280;41132;47.162;9.470;2023-02-23T07:16:00;96277.91;;;7.52;100.00
55271;BME280;41132;47.162;9.470;2023-02-23T07:18:25;96273.22;;;7.46;100.00
55271;BME280;41132;47.162;9.470;2023-02-23T07:20:50;96267.63;;;7.41;100.00
55271;BME280;41132;47.162;9.470;2023-02-23T07:23:16;96276.94;;;7.43;100.00
55271;BME280;41132;47.162;9.470;2023-02-23T07:25:42;96277.38;;;7.39;100.00
55271;BME280;41132;47.162;9.470;2023-02-23T07:28:07;96264.97;;;7.50;100.00
55271;BME280;41132;47.162;9.470;2023-02-23T07:30:33;96275.00;;;7.55;100.00
55271;BME280;41132;47.162;9.470;2023-02-23T07:32:58;96275.78;;;7.65;100.00
55271;BME280;41132;47.162;9.470;2023-02-23T07:35:23;96268.78;;;7.66;100.00
55271;BME280;41132;47.162;9.470;2023-02-23T07:37:49;96274.69;;;7.58;100.00
55271;BME280;41132;47.162;9.470;2023-02-23T07:40:14;96278.84;;;7.51;100.00
55271;BME280;41132;47.162;9.470;2023-02-23T07:42:40;96270.75;;;7.54;100.00
55271;BME280;41132;47.162;9.470;2023-02-23T07:45:08;96265.44;;;7.73;100.00
55271;BME280;41132;47.162;9.470;2023-02-23T07:47:34;96282.78;;;7.65;100.00
55271;BME280;41132;47.162;9.470;2023-02-23T07:50:02;96275.66;;;7.57;100.00
55271;BME280;41132;47.162;9.470;2023-02-23T07:52:32;96275.66;;;7.57;100.00
55271;BME280;41132;47.162;9.470;2023-02-23T07:54:57;96258.06;;;7.59;100.00
55271;BME280;41132;47.162;9.470;2023-02-23T07:57:23;96276.69;;;7.74;100.00
55271;BME280;41132;47.162;9.470;2023-02-23T07:59:48;96274.19;;;7.82;100.00
55271;BME280;41132;47.162;9.470;2023-02-23T08:02:14;96270.09;;;7.80;100.00
55271;BME280;41132;47.162;9.470;2023-02-23T08:04:41;96262.81;;;7.73;100.00
55271;BME280;41132;47.162;9.470;2023-02-23T08:07:08;96265.44;;;7.73;100.00
55271;BME280;41132;47.162;9.470;2023-02-23T08:09:33;96269.97;;;7.71;100.00
55271;BME280;41132;47.162;9.470;2023-02-23T08:12:00;96268.03;;;7.73;100.00
55271;BME280;41132;47.162;9.470;2023-02-23T08:14:25;96284.09;;;7.79;100.00
55271;BME280;41132;47.162;9.470;2023-02-23T08:16:51;96267.19;;;7.83;100.00
55271;BME280;41132;47.162;9.470;2023-02-23T08:19:16;96260.88;;;7.76;100.00
55271;BME280;41132;47.162;9.470;2023-02-23T08:21:42;96275.28;;;7.89;100.00
55271;BME280;41132;47.162;9.470;2023-02-23T08:24:08;96277.19;;;7.87;100.00
55271;BME280;41132;47.162;9.470;2023-02-23T08:26:36;96267.13;;;7.92;100.00
55271;BME280;41132;47.162;9.470;2023-02-23T08:29:03;96265.00;;;8.06;100.00
55271;BME280;41132;47.162;9.470;2023-02-23T08:31:28;96278.19;;;8.14;100.00
55271;BME280;41132;47.162;9.470;2023-02-23T08:33:54;96269.78;;;8.10;100.00
55271;BME280;41132;47.162;9.470;2023-02-23T08:36:20;96277.19;;;8.15;100.00
55271;BME280;41132;47.162;9.470;2023-02-23T08:38:45;96255.19;;;8.18;100.00
55271;BME280;41132;47.162;9.470;2023-02-23T08:41:11;96265.97;;;8.32;100.00
55271;BME280;41132;47.162;9.470;2023-02-23T08:43:37;96271.84;;;8.44;100.00
55271;BME280;41132;47.162;9.470;2023-02-23T08:46:04;96249.47;;;8.32;100.00
55271;BME280;41132;47.162;9.470;2023-02-23T08:48:30;96264.41;;;8.40;100.00
55271;BME280;41132;47.162;9.470;2023-02-23T08:50:57;96262.22;;;8.35;100.00
55271;BME280;41132;47.162;9.470;2023-02-23T08:53:23;96260.00;;;8.40;100.00
55271;BME280;41132;47.162;9.470;2023-02-23T08:55:55;96270.56;;;8.48;100.00
55271;BME280;41132;47.162;9.470;2023-02-23T08:58:20;96259.53;;;8.72;100.00
55271;BME280;41132;47.162;9.470;2023-02-23T09:00:47;96276.19;;;8.71;100.00
55271;BME280;41132;47.162;9.470;2023-02-23T09:03:13;96260.78;;;8.50;100.00
55271;BME280;41132;47.162;9.470;2023-02-23T09:05:38;96263.19;;;8.62;100.00
55271;BME280;41132;47.162;9.470;2023-02-23T09:08:04;96265.94;;;8.78;100.00
55271;BME280;41132;47.162;9.470;2023-02-23T09:10:30;96256.22;;;8.88;100.00
55271;BME280;41132;47.162;9.470;2023-02-23T09:12:56;96259.22;;;8.93;100.00
55271;BME280;41132;47.162;9.470;2023-02-23T09:15:21;96261.28;;;9.08;100.00
55271;BME280;41132;47.162;9.470;2023-02-23T09:17:47;96236.13;;;9.15;100.00
55271;BME280;41132;47.162;9.470;2023-02-23T09:20:14;96243.59;;;9.28;100.00
55271;BME280;41132;47.162;9.470;2023-02-23T09:22:42;96243.94;;;9.59;100.00
55271;BME280;41132;47.162;9.470;2023-02-23T09:25:14;96251.28;;;9.90;100.00
55271;BME280;41132;47.162;9.470;2023-02-23T09:27:42;96253.34;;;10.12;100.00
55271;BME280;41132;47.162;9.470;2023-02-23T09:30:08;96248.13;;;10.20;100.00
55271;BME280;41132;47.162;9.470;2023-02-23T09:32:34;96255.97;;;10.12;100.00
55271;BME280;41132;47.162;9.470;2023-02-23T09:35:00;96245.91;;;10.42;100.00
55271;BME280;41132;47.162;9.470;2023-02-23T09:37:25;96253.03;;;10.82;100.00
55271;BME280;41132;47.162;9.470;2023-02-23T09:39:51;96241.38;;;11.10;100.00
55271;BME280;41132;47.162;9.470;2023-02-23T09:47:52;96249.41;;;11.33;100.00
55271;BME280;41132;47.162;9.470;2023-02-23T09:50:22;96248.59;;;11.40;100.00
55271;BME280;41132;47.162;9.470;2023-02-23T09:52:54;96254.78;;;11.56;100.00
55271;BME280;41132;47.162;9.470;2023-02-23T09:55:21;96252.66;;;11.67;100.00
55271;BME280;41132;47.162;9.470;2023-02-23T09:57:47;96238.91;;;11.97;100.00
55271;BME280;41132;47.162;9.470;2023-02-23T10:00:22;96241.91;;;11.85;100.00
55271;BME280;41132;47.162;9.470;2023-02-23T10:03:09;96256.38;;;11.89;100.00
55271;BME280;41132;47.162;9.470;2023-02-23T10:05:41;96257.56;;;11.62;100.00
55271;BME280;41132;47.162;9.470;2023-02-23T10:11:23;96246.00;;;11.96;100.00
55271;BME280;41132;47.162;9.470;2023-02-23T10:17:02;96247.66;;;11.89;100.00
55271;BME280;41132;47.162;9.470;2023-02-23T10:19:49;96238.63;;;11.91;100.00
55271;BME280;41132;47.162;9.470;2023-02-23T10:22:18;96228.94;;;11.76;100.00
55271;BME280;41132;47.162;9.470;2023-02-23T10:24:51;96243.00;;;12.07;100.00
55271;BME280;41132;47.162;9.470;2023-02-23T10:27:20;96236.13;;;12.38;100.00
55271;BME280;41132;47.162;9.470;2023-02-23T10:29:54;96228.41;;;12.28;100.00
55271;BME280;41132;47.162;9.470;2023-02-23T10:32:37;96226.31;;;12.23;100.00
55271;BME280;41132;47.162;9.470;2023-02-23T10:35:10;96222.84;;;12.31;100.00
55271;BME280;41132;47.162;9.470;2023-02-23T10:37:36;96227.44;;;12.29;100.00
55271;BME280;41132;47.162;9.470;2023-02-23T10:40:02;96220.81;;;12.33;100.00
55271;BME280;41132;47.162;9.470;2023-02-23T10:42:29;96230.88;;;12.29;100.00
55271;BME280;41132;47.162;9.470;2023-02-23T10:44:57;96219.84;;;12.34;100.00
55271;BME280;41132;47.162;9.470;2023-02-23T10:47:29;96214.59;;;12.34;100.00
55271;BME280;41132;47.162;9.470;2023-02-23T10:49:56;96216.88;;;12.60;100.00
55271;BME280;41132;47.162;9.470;2023-02-23T10:54:49;96212.66;;;12.51;100.00
55271;BME280;41132;47.162;9.470;2023-02-23T11:02:43;96209.09;;;12.90;100.00
55271;BME280;41132;47.162;9.470;2023-02-23T11:05:36;96210.22;;;12.72;100.00
55271;BME280;41132;47.162;9.470;2023-02-23T11:11:17;96205.53;;;12.60;100.00
55271;BME280;41132;47.162;9.470;2023-02-23T11:13:48;96193.38;;;12.36;100.00
55271;BME280;41132;47.162;9.470;2023-02-23T11:16:20;96198.53;;;11.81;100.00
55271;BME280;41132;47.162;9.470;2023-02-23T11:19:00;96187.06;;;11.74;100.00
55271;BME280;41132;47.162;9.470;2023-02-23T11:21:30;96183.41;;;11.83;100.00
55271;BME280;41132;47.162;9.470;2023-02-23T11:24:19;96182.06;;;11.96;100.00
55271;BME280;41132;47.162;9.470;2023-02-23T11:26:47;96182.22;;;11.94;100.00
55271;BME280;41132;47.162;9.470;2023-02-23T11:31:55;96171.19;;;11.99;100.00
55271;BME280;41132;47.162;9.470;2023-02-23T11:34:34;96163.34;;;11.90;100.00
55271;BME280;41132;47.162;9.470;2023-02-23T11:40:02;96157.72;;;11.54;100.00
55271;BME280;41132;47.162;9.470;2023-02-23T11:42:57;96155.91;;;11.55;100.00
55271;BME280;41132;47.162;9.470;2023-02-23T11:45:36;96141.16;;;11.45;100.00
55271;BME280;41132;47.162;9.470;2023-02-23T11:48:03;96151.69;;;11.37;100.00
55271;BME280;41132;47.162;9.470;2023-02-23T11:50:31;96142.50;;;11.33;100.00
55271;BME280;41132;47.162;9.470;2023-02-23T11:53:29;96145.06;;;11.58;100.00
55271;BME280;41132;47.162;9.470;2023-02-23T11:55:58;96142.41;;;11.58;100.00
55271;BME280;41132;47.162;9.470;2023-02-23T12:01:03;96125.50;;;11.60;100.00
55271;BME280;41132;47.162;9.470;2023-02-23T12:03:37;96123.63;;;11.77;100.00
55271;BME280;41132;47.162;9.470;2023-02-23T12:06:08;96124.28;;;11.71;100.00
55271;BME280;41132;47.162;9.470;2023-02-23T12:08:48;96114.03;;;11.53;100.00
55271;BME280;41132;47.162;9.470;2023-02-23T12:11:24;96107.94;;;11.53;100.00
55271;BME280;41132;47.162;9.470;2023-02-23T12:14:04;96115.59;;;11.31;100.00
55271;BME280;41132;47.162;9.470;2023-02-23T12:16:41;96113.75;;;11.40;96.63
55271;BME280;41132;47.162;9.470;2023-02-23T12:21:49;96099.25;;;11.52;100.00
55271;BME280;41132;47.162;9.470;2023-02-23T12:27:03;96093.84;;;11.54;100.00
55271;BME280;41132;47.162;9.470;2023-02-23T12:30:08;96093.94;;;11.29;100.00
55271;BME280;41132;47.162;9.470;2023-02-23T12:32:50;96093.00;;;11.14;100.00
55271;BME280;41132;47.162;9.470;2023-02-23T12:40:41;96082.06;;;11.33;100.00
55271;BME280;41132;47.162;9.470;2023-02-23T12:43:21;96078.78;;;11.39;100.00
55271;BME280;41132;47.162;9.470;2023-02-23T12:46:10;96082.53;;;11.45;99.70
55271;BME280;41132;47.162;9.470;2023-02-23T12:51:17;96076.78;;;11.41;99.39
55271;BME280;41132;47.162;9.470;2023-02-23T12:53:44;96069.53;;;11.52;99.47
55271;BME280;41132;47.162;9.470;2023-02-23T12:59:02;96070.63;;;11.65;98.98
55271;BME280;41132;47.162;9.470;2023-02-23T13:01:38;96068.63;;;11.67;99.62
55271;BME280;41132;47.162;9.470;2023-02-23T13:15:09;96054.28;;;11.47;98.07
55271;BME280;41132;47.162;9.470;2023-02-23T13:23:09;96058.38;;;11.49;100.00
55271;BME280;41132;47.162;9.470;2023-02-23T13:25:47;96047.63;;;11.59;98.28
55271;BME280;41132;47.162;9.470;2023-02-23T13:28:20;96044.47;;;11.72;96.74
55271;BME280;41132;47.162;9.470;2023-02-23T13:30:52;96048.31;;;11.93;95.56
55271;BME280;41132;47.162;9.470;2023-02-23T13:33:27;96042.72;;;11.87;95.30
55271;BME280;41132;47.162;9.470;2023-02-23T13:35:56;96041.13;;;11.78;92.82
55271;BME280;41132;47.162;9.470;2023-02-23T13:41:19;96044.50;;;11.87;90.90
55271;BME280;41132;47.162;9.470;2023-02-23T13:43:56;96038.13;;;11.89;92.63
55271;BME280;41132;47.162;9.470;2023-02-23T13:49:36;96044.13;;;11.67;91.51
55271;BME280;41132;47.162;9.470;2023-02-23T13:52:20;96042.72;;;11.87;87.12
55271;BME280;41132;47.162;9.470;2023-02-23T13:54:55;96041.59;;;11.90;89.10
55271;BME280;41132;47.162;9.470;2023-02-23T13:57:22;96044.38;;;11.88;92.91
55271;BME280;41132;47.162;9.470;2023-02-23T13:59:48;96035.97;;;11.85;93.17
55271;BME280;41132;47.162;9.470;2023-02-23T14:04:51;96036.81;;;11.85;91.97
55271;BME280;41132;47.162;9.470;2023-02-23T14:07:27;96028.03;;;11.70;94.06
55271;BME280;41132;47.162;9.470;2023-02-23T14:10:03;96034.88;;;11.79;92.81
55271;BME280;41132;47.162;9.470;2023-02-23T14:12:39;96032.69;;;11.83;92.05
55271;BME280;41132;47.162;9.470;2023-02-23T14:20:56;96029.50;;;11.73;94.51
55271;BME280;41132;47.162;9.470;2023-02-23T14:26:09;96024.06;;;11.74;94.03
55271;BME280;41132;47.162;9.470;2023-02-23T14:28:38;96028.19;;;11.68;93.97
55271;BME280;41132;47.162;9.470;2023-02-23T14:41:23;96031.72;;;11.61;95.90
55271;BME280;41132;47.162;9.470;2023-02-23T14:44:04;96036.41;;;11.42;98.15
55271;BME280;41132;47.162;9.470;2023-02-23T14:46:31;96027.38;;;11.45;96.60
55271;BME280;41132;47.162;9.470;2023-02-23T14:51:35;96031.88;;;11.59;95.51
55271;BME280;41132;47.162;9.470;2023-02-23T14:54:31;96032.56;;;11.53;95.38
55271;BME280;41132;47.162;9.470;2023-02-23T14:56:58;96033.84;;;11.57;95.52
55271;BME280;41132;47.162;9.470;2023-02-23T14:59:35;96039.63;;;11.53;95.32
55271;BME280;41132;47.162;9.470;2023-02-23T15:02:16;96035.03;;;11.55;96.08
55271;BME280;41132;47.162;9.470;2023-02-23T15:04:41;96039.63;;;11.53;97.82
55271;BME280;41132;47.162;9.470;2023-02-23T15:07:18;96037.22;;;11.43;99.10
55271;BME280;41132;47.162;9.470;2023-02-23T15:09:51;96037.16;;;11.51;96.26
55271;BME280;41132;47.162;9.470;2023-02-23T15:12:24;96029.78;;;11.46;97.90
55271;BME280;41132;47.162;9.470;2023-02-23T15:14:55;96040.28;;;11.55;98.77
55271;BME280;41132;47.162;9.470;2023-02-23T15:17:24;96044.41;;;11.49;99.16
55271;BME280;41132;47.162;9.470;2023-02-23T15:20:03;96042.41;;;11.51;97.99
55271;BME280;41132;47.162;9.470;2023-02-23T15:22:34;96040.16;;;11.48;99.43
55271;BME280;41132;47.162;9.470;2023-02-23T15:25:07;96028.16;;;11.45;99.76
55271;BME280;41132;47.162;9.470;2023-02-23T15:27:41;96048.00;;;11.56;98.76
55271;BME280;41132;47.162;9.470;2023-02-23T15:30:27;96043.28;;;11.43;100.00
55271;BME280;41132;47.162;9.470;2023-02-23T15:33:10;96035.13;;;11.38;100.00